createdAt,value
2018-02-01T00:00:03.703Z,0
2018-02-01T00:01:04.417Z,0
2018-02-01T00:02:05.152Z,0
2018-02-01T00:03:05.873Z,0
2018-02-01T00:04:06.653Z,0
2018-02-01T00:05:07.447Z,0
2018-02-01T00:06:08.207Z,0
2018-02-01T00:07:08.965Z,0
2018-02-01T00:08:09.680Z,0
2018-02-01T00:09:10.429Z,0
2018-02-01T00:10:11.223Z,0
2018-02-01T00:11:12.023Z,0
2018-02-01T00:12:12.736Z,0
2018-02-01T00:13:13.497Z,0
2018-02-01T00:14:14.235Z,0
2018-02-01T00:15:14.970Z,0
2018-02-01T00:16:15.689Z,0
2018-02-01T00:17:16.483Z,0
2018-02-01T00:18:17.210Z,0
2018-02-01T00:19:17.933Z,0
2018-02-01T00:20:18.664Z,0
2018-02-01T00:21:19.438Z,0
2018-02-01T00:22:20.164Z,0
2018-02-01T00:23:20.891Z,0
2018-02-01T00:24:21.611Z,0
2018-02-01T00:25:22.334Z,0
2018-02-01T00:26:23.123Z,0
2018-02-01T00:27:23.901Z,0
2018-02-01T00:28:24.614Z,0
2018-02-01T00:29:25.354Z,0
2018-02-01T00:30:26.100Z,0
2018-02-01T00:31:26.872Z,0
2018-02-01T00:32:27.600Z,0
2018-02-01T00:33:28.325Z,0
2018-02-01T00:34:29.041Z,0
2018-02-01T00:35:29.757Z,0
2018-02-01T00:36:30.532Z,0
2018-02-01T00:37:31.269Z,0
2018-02-01T00:38:31.988Z,0
2018-02-01T00:39:32.717Z,0
2018-02-01T00:40:33.449Z,0
2018-02-01T00:41:34.236Z,0
2018-02-01T00:42:35.020Z,0
2018-02-01T00:43:35.742Z,0
2018-02-01T00:44:36.565Z,0
2018-02-01T00:45:37.380Z,0
2018-02-01T00:46:38.148Z,0
2018-02-01T00:47:38.864Z,0
2018-02-01T00:48:39.598Z,0
2018-02-01T00:49:40.332Z,0
2018-02-01T00:50:41.068Z,0
2018-02-01T00:51:41.851Z,0
2018-02-01T00:52:42.574Z,0
2018-02-01T00:53:43.370Z,0
2018-02-01T00:54:44.096Z,0
2018-02-01T00:55:44.815Z,0
2018-02-01T00:56:45.550Z,0
2018-02-01T00:57:46.270Z,0
2018-02-01T00:58:47.015Z,0
2018-02-01T00:59:47.797Z,0
2018-02-01T01:00:48.514Z,0
2018-02-01T01:01:49.244Z,0
2018-02-01T01:02:49.971Z,0
2018-02-01T01:03:50.757Z,0
2018-02-01T01:04:51.479Z,0
2018-02-01T01:05:52.211Z,0
2018-02-01T01:06:52.987Z,0
2018-02-01T01:07:53.713Z,0
2018-02-01T01:08:54.446Z,0
2018-02-01T01:09:55.252Z,0
2018-02-01T01:10:55.976Z,0
2018-02-01T01:11:56.688Z,0
2018-02-01T01:12:57.424Z,0
2018-02-01T01:13:58.135Z,0
2018-02-01T01:14:58.858Z,0
2018-02-01T01:15:59.570Z,0
2018-02-01T01:17:00.296Z,0
2018-02-01T01:18:01.025Z,0
2018-02-01T01:19:01.756Z,0
2018-02-01T01:20:02.488Z,0
2018-02-01T01:21:03.215Z,0
2018-02-01T01:22:04.256Z,0
2018-02-01T01:23:05.017Z,0
2018-02-01T01:24:05.742Z,0
2018-02-01T01:25:06.453Z,0
2018-02-01T01:26:07.181Z,0
2018-02-01T01:27:07.950Z,0
2018-02-01T01:28:08.675Z,0
2018-02-01T01:29:09.388Z,0
2018-02-01T01:30:10.107Z,0
2018-02-01T01:31:10.826Z,0
2018-02-01T01:32:11.602Z,0
2018-02-01T01:33:12.320Z,0
2018-02-01T01:34:13.049Z,0
2018-02-01T01:35:13.780Z,0
2018-02-01T01:36:14.499Z,0
2018-02-01T01:37:15.227Z,0
2018-02-01T01:38:15.965Z,0
2018-02-01T01:39:16.730Z,0
2018-02-01T01:40:17.581Z,0
2018-02-01T01:41:18.387Z,0
2018-02-01T01:42:19.109Z,0
2018-02-01T01:43:19.840Z,0
2018-02-01T01:44:20.565Z,0
2018-02-01T01:45:21.292Z,0
2018-02-01T01:46:22.015Z,0
2018-02-01T01:47:22.737Z,0
2018-02-01T01:48:23.453Z,0
2018-02-01T01:49:24.178Z,0
2018-02-01T01:50:24.897Z,0
2018-02-01T01:51:25.732Z,0
2018-02-01T01:52:26.458Z,0
2018-02-01T01:53:27.170Z,0
2018-02-01T01:54:27.895Z,0
2018-02-01T01:55:28.620Z,0
2018-02-01T01:56:29.651Z,0
2018-02-01T01:57:30.364Z,0
2018-02-01T01:58:31.099Z,0
2018-02-01T01:59:31.806Z,0
2018-02-01T02:00:32.534Z,0
2018-02-01T02:01:33.282Z,0
2018-02-01T02:02:34.262Z,0
2018-02-01T02:03:35.063Z,0
2018-02-01T02:04:35.858Z,0
2018-02-01T02:05:36.582Z,0
2018-02-01T02:06:37.303Z,0
2018-02-01T02:07:38.145Z,0
2018-02-01T02:08:38.963Z,0
2018-02-01T02:09:39.756Z,0
2018-02-01T02:10:40.486Z,0
2018-02-01T02:11:41.196Z,0
2018-02-01T02:12:41.905Z,0
2018-02-01T02:13:42.630Z,0
2018-02-01T02:14:43.355Z,0
2018-02-01T02:15:44.137Z,0
2018-02-01T02:16:44.851Z,0
2018-02-01T02:17:45.557Z,0
2018-02-01T02:18:46.277Z,0
2018-02-01T02:19:47.012Z,0
2018-02-01T02:20:47.808Z,0
2018-02-01T02:21:48.526Z,0
2018-02-01T02:22:49.243Z,0
2018-02-01T02:23:49.970Z,0
2018-02-01T02:24:50.686Z,0
2018-02-01T02:25:51.490Z,0
2018-02-01T02:26:52.208Z,0
2018-02-01T02:27:52.939Z,0
2018-02-01T02:28:53.790Z,0
2018-02-01T02:29:54.565Z,0
2018-02-01T02:30:55.228Z,0
2018-02-01T02:31:55.950Z,0
2018-02-01T02:32:56.663Z,0
2018-02-01T02:33:57.391Z,0
2018-02-01T02:34:58.117Z,0
2018-02-01T02:35:58.830Z,0
2018-02-01T02:36:59.563Z,0
2018-02-01T02:38:00.278Z,0
2018-02-01T02:39:01.007Z,0
2018-02-01T02:40:01.798Z,0
2018-02-01T02:41:02.578Z,0
2018-02-01T02:42:03.341Z,0
2018-02-01T02:43:04.151Z,0
2018-02-01T02:44:04.869Z,0
2018-02-01T02:45:05.600Z,0
2018-02-01T02:46:06.376Z,0
2018-02-01T02:47:07.104Z,0
2018-02-01T02:48:07.865Z,0
2018-02-01T02:49:08.603Z,0
2018-02-01T02:50:09.390Z,0
2018-02-01T02:51:10.129Z,0
2018-02-01T02:52:10.890Z,0
2018-02-01T02:53:11.684Z,0
2018-02-01T02:54:12.406Z,0
2018-02-01T02:55:13.148Z,0
2018-02-01T02:56:13.928Z,0
2018-02-01T02:57:14.726Z,0
2018-02-01T02:58:15.509Z,0
2018-02-01T02:59:16.290Z,0
2018-02-01T03:00:17.052Z,0
2018-02-01T03:01:17.783Z,0
2018-02-01T03:02:18.520Z,0
2018-02-01T03:03:19.308Z,0
2018-02-01T03:04:20.039Z,0
2018-02-01T03:05:20.816Z,0
2018-02-01T03:06:21.534Z,0
2018-02-01T03:07:22.312Z,0
2018-02-01T03:08:23.021Z,0
2018-02-01T03:09:23.757Z,0
2018-02-01T03:10:24.497Z,0
2018-02-01T03:11:25.212Z,0
2018-02-01T03:12:26.030Z,0
2018-02-01T03:13:26.751Z,0
2018-02-01T03:14:27.511Z,0
2018-02-01T03:15:28.227Z,0
2018-02-01T03:16:28.955Z,0
2018-02-01T03:17:29.733Z,0
2018-02-01T03:18:30.455Z,0
2018-02-01T03:19:31.233Z,0
2018-02-01T03:20:31.948Z,0
2018-02-01T03:21:32.733Z,0
2018-02-01T03:22:33.507Z,0
2018-02-01T03:23:34.221Z,0
2018-02-01T03:24:34.994Z,0
2018-02-01T03:25:35.713Z,0
2018-02-01T03:26:36.436Z,0
2018-02-01T03:27:37.199Z,0
2018-02-01T03:28:37.924Z,0
2018-02-01T03:29:38.640Z,0
2018-02-01T03:30:39.363Z,0
2018-02-01T03:31:40.091Z,0
2018-02-01T03:32:40.823Z,0
2018-02-01T03:33:41.600Z,0
2018-02-01T03:34:42.324Z,0
2018-02-01T03:35:43.124Z,0
2018-02-01T03:36:43.874Z,0
2018-02-01T03:37:44.641Z,0
2018-02-01T03:38:45.373Z,0
2018-02-01T03:39:46.076Z,0
2018-02-01T03:40:46.803Z,0
2018-02-01T03:41:47.523Z,0
2018-02-01T03:42:48.249Z,0
2018-02-01T03:43:48.959Z,0
2018-02-01T03:44:49.689Z,0
2018-02-01T03:45:50.468Z,0
2018-02-01T03:46:51.245Z,0
2018-02-01T03:47:52.033Z,0
2018-02-01T03:50:07.132Z,0
2018-02-01T03:51:07.850Z,0
2018-02-01T03:52:08.573Z,0
2018-02-01T03:53:09.301Z,0
2018-02-01T03:54:10.023Z,0
2018-02-01T03:55:10.729Z,0
2018-02-01T03:56:11.454Z,0
2018-02-01T03:57:12.250Z,0
2018-02-01T03:58:13.058Z,0
2018-02-01T03:59:13.860Z,0
2018-02-01T04:00:14.636Z,0
2018-02-01T04:01:15.435Z,0
2018-02-01T04:02:16.231Z,0
2018-02-01T04:03:17.016Z,0
2018-02-01T04:04:17.739Z,0
2018-02-01T04:05:18.453Z,0
2018-02-01T04:06:19.183Z,0
2018-02-01T04:07:19.921Z,0
2018-02-01T04:08:20.620Z,0
2018-02-01T04:09:21.394Z,0
2018-02-01T04:10:22.125Z,0
2018-02-01T04:11:22.853Z,0
2018-02-01T04:12:23.921Z,0
2018-02-01T04:13:24.631Z,0
2018-02-01T04:14:25.349Z,0
2018-02-01T04:15:26.143Z,0
2018-02-01T04:16:26.930Z,0
2018-02-01T04:17:27.652Z,0
2018-02-01T04:18:28.423Z,0
2018-02-01T04:19:29.222Z,0
2018-02-01T04:20:29.943Z,0
2018-02-01T04:21:30.675Z,0
2018-02-01T04:22:31.482Z,0
2018-02-01T04:23:32.577Z,0
2018-02-01T04:24:33.332Z,0
2018-02-01T04:25:34.041Z,0
2018-02-01T04:26:34.770Z,0
2018-02-01T04:27:35.488Z,0
2018-02-01T04:28:36.255Z,0
2018-02-01T04:29:36.974Z,0
2018-02-01T04:30:37.717Z,0
2018-02-01T04:31:38.401Z,0
2018-02-01T04:32:39.200Z,0
2018-02-01T04:33:39.958Z,0
2018-02-01T04:34:40.723Z,0
2018-02-01T04:35:41.441Z,0
2018-02-01T04:36:42.158Z,0
2018-02-01T04:37:42.930Z,0
2018-02-01T04:38:43.647Z,0
2018-02-01T04:39:44.425Z,0
2018-02-01T04:40:45.202Z,0
2018-02-01T04:41:45.993Z,0
2018-02-01T04:42:47.615Z,0
2018-02-01T04:43:49.191Z,0
2018-02-01T04:44:51.253Z,0
2018-02-01T04:45:52.326Z,0
2018-02-01T04:46:54.302Z,0
2018-02-01T04:47:56.221Z,0
2018-02-01T04:48:58.068Z,0
2018-02-01T04:49:59.029Z,0
2018-02-01T04:50:59.744Z,0
2018-02-01T04:52:00.472Z,0
2018-02-01T04:53:01.191Z,0
2018-02-01T04:54:01.948Z,0
2018-02-01T04:55:02.723Z,0
2018-02-01T04:56:03.407Z,0
2018-02-01T04:57:04.201Z,0
2018-02-01T04:58:04.907Z,0
2018-02-01T04:59:05.633Z,0
2018-02-01T05:00:06.343Z,0
2018-02-01T05:01:07.116Z,0
2018-02-01T05:02:07.905Z,0
2018-02-01T05:03:08.683Z,0
2018-02-01T05:04:09.470Z,0
2018-02-01T05:05:10.232Z,0
2018-02-01T05:06:10.950Z,0
2018-02-01T05:07:11.668Z,0
2018-02-01T05:08:12.402Z,0
2018-02-01T05:09:13.160Z,0
2018-02-01T05:10:13.893Z,0
2018-02-01T05:11:14.606Z,0
2018-02-01T05:12:15.322Z,0
2018-02-01T05:13:16.042Z,0
2018-02-01T05:14:16.774Z,0
2018-02-01T05:15:17.609Z,0
2018-02-01T05:16:18.411Z,0
2018-02-01T05:17:19.123Z,0
2018-02-01T05:18:19.834Z,0
2018-02-01T05:19:20.572Z,0
2018-02-01T05:20:21.377Z,0
2018-02-01T05:21:22.098Z,0
2018-02-01T05:22:22.829Z,0
2018-02-01T05:23:23.548Z,0
2018-02-01T05:24:24.274Z,0
2018-02-01T05:25:24.990Z,0
2018-02-01T05:26:25.722Z,0
2018-02-01T05:27:26.477Z,0
2018-02-01T05:28:27.253Z,0
2018-02-01T05:29:27.982Z,0
2018-02-01T05:30:28.781Z,0
2018-02-01T05:31:29.513Z,0
2018-02-01T05:32:30.233Z,0
2018-02-01T05:33:30.959Z,0
2018-02-01T05:34:31.724Z,0
2018-02-01T05:35:32.452Z,0
2018-02-01T05:36:33.172Z,0
2018-02-01T05:37:33.895Z,0
2018-02-01T05:38:34.682Z,0
2018-02-01T05:39:35.414Z,0
2018-02-01T05:40:36.133Z,0
2018-02-01T05:41:36.891Z,0
2018-02-01T05:42:37.615Z,0
2018-02-01T05:43:38.333Z,0
2018-02-01T05:44:39.045Z,0
2018-02-01T05:45:39.755Z,0
2018-02-01T05:46:40.529Z,0
2018-02-01T05:47:41.293Z,0
2018-02-01T05:48:41.996Z,0
2018-02-01T05:49:42.725Z,0
2018-02-01T05:50:43.458Z,0
2018-02-01T05:51:44.262Z,0
2018-02-01T05:52:45.063Z,0
2018-02-01T05:53:45.843Z,0
2018-02-01T05:54:46.553Z,0
2018-02-01T05:55:47.348Z,0
2018-02-01T05:56:48.395Z,0
2018-02-01T05:57:49.193Z,0
2018-02-01T05:58:49.905Z,0
2018-02-01T05:59:50.619Z,0
2018-02-01T06:00:51.354Z,0
2018-02-01T06:01:52.072Z,0
2018-02-01T06:02:52.839Z,0
2018-02-01T06:03:53.593Z,0
2018-02-01T06:04:54.315Z,0
2018-02-01T06:05:55.034Z,0
2018-02-01T06:06:55.750Z,0
2018-02-01T06:07:56.474Z,0
2018-02-01T06:08:57.206Z,0
2018-02-01T06:09:57.970Z,0
2018-02-01T06:10:58.693Z,0
2018-02-01T06:11:59.410Z,0
2018-02-01T06:13:00.194Z,0
2018-02-01T06:14:00.910Z,0
2018-02-01T06:15:01.655Z,0
2018-02-01T06:16:02.433Z,0
2018-02-01T06:17:03.149Z,0
2018-02-01T06:18:03.917Z,0
2018-02-01T06:19:04.632Z,0
2018-02-01T06:20:05.411Z,0
2018-02-01T06:21:06.123Z,0
2018-02-01T06:22:06.843Z,0
2018-02-01T06:23:07.592Z,0
2018-02-01T06:24:08.298Z,0
2018-02-01T06:25:09.010Z,0
2018-02-01T06:26:09.715Z,0
2018-02-01T06:27:10.427Z,0
2018-02-01T06:28:11.147Z,0
2018-02-01T06:29:11.919Z,0
2018-02-01T06:30:12.636Z,0
2018-02-01T06:31:13.382Z,0
2018-02-01T06:32:14.191Z,0
2018-02-01T06:33:15.491Z,0
2018-02-01T06:34:16.533Z,0
2018-02-01T06:35:17.241Z,0
2018-02-01T06:36:17.980Z,0
2018-02-01T06:37:18.692Z,0
2018-02-01T06:38:19.490Z,0
2018-02-01T06:39:20.234Z,0
2018-02-01T06:40:20.950Z,0
2018-02-01T06:41:21.667Z,0
2018-02-01T06:42:22.404Z,0
2018-02-01T06:43:23.138Z,0
2018-02-01T06:44:23.895Z,0
2018-02-01T06:45:24.681Z,0
2018-02-01T06:46:25.422Z,0
2018-02-01T06:47:26.203Z,0
2018-02-01T06:48:26.971Z,0
2018-02-01T06:49:27.693Z,0
2018-02-01T06:50:28.426Z,0
2018-02-01T06:51:29.157Z,0
2018-02-01T06:52:29.941Z,0
2018-02-01T06:53:30.669Z,0
2018-02-01T06:54:31.422Z,5
2018-02-01T06:55:32.153Z,5
2018-02-01T06:56:32.870Z,5
2018-02-01T06:57:33.598Z,5
2018-02-01T06:58:34.321Z,5
2018-02-01T06:59:35.342Z,5
2018-02-01T07:00:36.220Z,5
2018-02-01T07:01:36.995Z,11
2018-02-01T07:02:37.771Z,11
2018-02-01T07:03:38.507Z,11
2018-02-01T07:04:39.242Z,11
2018-02-01T07:05:40.084Z,16
2018-02-01T07:06:40.799Z,16
2018-02-01T07:07:41.517Z,16
2018-02-01T07:08:42.262Z,16
2018-02-01T07:09:42.988Z,22
2018-02-01T07:10:43.723Z,22
2018-02-01T07:11:44.442Z,22
2018-02-01T07:12:45.163Z,28
2018-02-01T07:13:45.941Z,28
2018-02-01T07:14:46.651Z,28
2018-02-01T07:15:47.417Z,33
2018-02-01T07:16:48.111Z,33
2018-02-01T07:17:48.921Z,39
2018-02-01T07:18:49.688Z,39
2018-02-01T07:19:50.432Z,39
2018-02-01T07:20:51.512Z,45
2018-02-01T07:21:52.245Z,45
2018-02-01T07:22:53.012Z,50
2018-02-01T07:23:53.766Z,56
2018-02-01T07:24:54.466Z,56
2018-02-01T07:25:55.247Z,61
2018-02-01T07:26:56.010Z,67
2018-02-01T07:27:56.723Z,67
2018-02-01T07:28:57.451Z,78
2018-02-01T07:29:58.211Z,73
2018-02-01T07:30:59.063Z,73
2018-02-01T07:31:59.906Z,84
2018-02-01T07:33:00.641Z,78
2018-02-01T07:34:01.360Z,84
2018-02-01T07:35:02.095Z,84
2018-02-01T07:36:02.913Z,90
2018-02-01T07:37:03.637Z,95
2018-02-01T07:38:04.426Z,106
2018-02-01T07:39:05.214Z,101
2018-02-01T07:40:06.003Z,106
2018-02-01T07:41:06.774Z,101
2018-02-01T07:42:07.627Z,106
2018-02-01T07:43:08.707Z,118
2018-02-01T07:44:09.513Z,118
2018-02-01T07:45:10.299Z,129
2018-02-01T07:46:11.046Z,135
2018-02-01T07:47:12.135Z,135
2018-02-01T07:48:12.853Z,135
2018-02-01T07:49:13.596Z,146
2018-02-01T07:50:14.310Z,129
2018-02-01T07:51:15.034Z,140
2018-02-01T07:52:15.751Z,157
2018-02-01T07:53:16.520Z,135
2018-02-01T07:54:17.241Z,129
2018-02-01T07:55:17.964Z,157
2018-02-01T07:56:18.684Z,135
2018-02-01T07:57:19.488Z,118
2018-02-01T07:58:20.302Z,135
2018-02-01T07:59:21.033Z,140
2018-02-01T08:00:21.754Z,140
2018-02-01T08:01:22.471Z,146
2018-02-01T08:02:23.202Z,123
2018-02-01T08:03:23.980Z,163
2018-02-01T08:04:24.700Z,191
2018-02-01T08:05:25.421Z,185
2018-02-01T08:06:26.161Z,163
2018-02-01T08:07:26.881Z,174
2018-02-01T08:08:27.612Z,213
2018-02-01T08:09:28.395Z,202
2018-02-01T08:10:29.123Z,151
2018-02-01T08:11:29.852Z,151
2018-02-01T08:12:30.613Z,140
2018-02-01T08:13:31.344Z,123
2018-02-01T08:14:32.391Z,135
2018-02-01T08:15:33.122Z,168
2018-02-01T08:16:34.946Z,140
2018-02-01T08:17:35.925Z,140
2018-02-01T08:18:36.702Z,135
2018-02-01T08:19:37.794Z,174
2018-02-01T08:20:38.563Z,196
2018-02-01T08:21:39.283Z,180
2018-02-01T08:22:40.075Z,168
2018-02-01T08:23:40.792Z,168
2018-02-01T08:24:41.558Z,146
2018-02-01T08:25:42.371Z,174
2018-02-01T08:26:43.061Z,123
2018-02-01T08:27:43.773Z,163
2018-02-01T08:28:44.569Z,174
2018-02-01T08:29:45.282Z,135
2018-02-01T08:30:46.006Z,151
2018-02-01T08:31:46.731Z,168
2018-02-01T08:32:47.447Z,151
2018-02-01T08:33:48.173Z,168
2018-02-01T08:34:48.951Z,185
2018-02-01T08:35:49.666Z,174
2018-02-01T08:36:50.452Z,202
2018-02-01T08:37:51.243Z,219
2018-02-01T08:38:52.082Z,191
2018-02-01T08:39:52.855Z,202
2018-02-01T08:40:53.570Z,213
2018-02-01T08:41:54.297Z,225
2018-02-01T08:42:55.067Z,258
2018-02-01T08:43:55.836Z,258
2018-02-01T08:44:56.601Z,208
2018-02-01T08:45:57.311Z,191
2018-02-01T08:46:58.044Z,196
2018-02-01T08:47:58.814Z,208
2018-02-01T08:48:59.528Z,202
2018-02-01T08:50:00.260Z,202
2018-02-01T08:51:01.016Z,219
2018-02-01T08:52:01.702Z,241
2018-02-01T08:53:02.424Z,270
2018-02-01T08:54:03.145Z,286
2018-02-01T08:55:03.938Z,360
2018-02-01T08:56:04.716Z,393
2018-02-01T08:57:05.433Z,450
2018-02-01T08:58:06.169Z,354
2018-02-01T08:59:06.971Z,382
2018-02-01T09:00:07.998Z,393
2018-02-01T09:01:08.793Z,371
2018-02-01T09:02:09.573Z,303
2018-02-01T09:03:10.304Z,315
2018-02-01T09:04:11.071Z,309
2018-02-01T09:05:11.834Z,343
2018-02-01T09:06:12.600Z,331
2018-02-01T09:07:13.328Z,360
2018-02-01T09:08:14.081Z,382
2018-02-01T09:09:14.873Z,354
2018-02-01T09:10:15.599Z,337
2018-02-01T09:11:16.381Z,365
2018-02-01T09:12:17.166Z,365
2018-02-01T09:13:17.878Z,388
2018-02-01T09:14:18.693Z,365
2018-02-01T09:15:19.444Z,326
2018-02-01T09:16:20.220Z,320
2018-02-01T09:17:20.951Z,500
2018-02-01T09:18:21.683Z,393
2018-02-01T09:19:22.469Z,382
2018-02-01T09:20:23.193Z,410
2018-02-01T09:21:23.911Z,388
2018-02-01T09:22:24.644Z,388
2018-02-01T09:23:25.362Z,286
2018-02-01T09:24:26.114Z,219
2018-02-01T09:25:26.893Z,236
2018-02-01T09:26:27.603Z,270
2018-02-01T09:27:28.336Z,270
2018-02-01T09:28:29.050Z,241
2018-02-01T09:29:30.073Z,219
2018-02-01T09:30:30.861Z,219
2018-02-01T09:31:31.580Z,241
2018-02-01T09:32:32.309Z,303
2018-02-01T09:33:33.030Z,286
2018-02-01T09:34:33.756Z,309
2018-02-01T09:35:34.563Z,236
2018-02-01T09:36:35.291Z,241
2018-02-01T09:37:36.016Z,343
2018-02-01T09:38:37.493Z,343
2018-02-01T09:39:38.433Z,421
2018-02-01T09:40:39.205Z,478
2018-02-01T09:41:39.989Z,388
2018-02-01T09:42:40.770Z,270
2018-02-01T09:43:41.491Z,388
2018-02-01T09:44:42.230Z,455
2018-02-01T09:45:42.963Z,500
2018-02-01T09:46:43.690Z,618
2018-02-01T09:47:44.405Z,776
2018-02-01T09:48:45.122Z,506
2018-02-01T09:49:45.957Z,585
2018-02-01T09:50:46.725Z,618
2018-02-01T09:51:47.491Z,506
2018-02-01T09:52:48.222Z,478
2018-02-01T09:53:48.992Z,466
2018-02-01T09:54:49.771Z,793
2018-02-01T09:55:50.573Z,646
2018-02-01T09:56:51.382Z,849
2018-02-01T09:57:52.153Z,495
2018-02-01T09:58:52.880Z,433
2018-02-01T09:59:53.614Z,630
2018-02-01T10:00:54.654Z,596
2018-02-01T10:01:55.407Z,556
2018-02-01T10:02:56.177Z,506
2018-02-01T10:03:56.891Z,506
2018-02-01T10:04:57.613Z,500
2018-02-01T10:05:58.505Z,500
2018-02-01T10:06:59.293Z,528
2018-02-01T10:08:00.032Z,517
2018-02-01T10:09:00.743Z,416
2018-02-01T10:10:01.471Z,506
2018-02-01T10:11:02.190Z,534
2018-02-01T10:12:02.935Z,483
2018-02-01T10:13:03.651Z,523
2018-02-01T10:14:04.381Z,500
2018-02-01T10:15:05.108Z,461
2018-02-01T10:16:05.924Z,427
2018-02-01T10:17:06.653Z,489
2018-02-01T10:18:07.405Z,596
2018-02-01T10:19:08.175Z,551
2018-02-01T10:20:08.904Z,410
2018-02-01T10:21:09.715Z,354
2018-02-01T10:22:11.748Z,472
2018-02-01T10:23:13.167Z,455
2018-02-01T10:24:14.144Z,506
2018-02-01T10:25:14.880Z,556
2018-02-01T10:26:15.622Z,523
2018-02-01T10:27:16.403Z,466
2018-02-01T10:28:17.122Z,455
2018-02-01T10:29:17.890Z,506
2018-02-01T10:30:18.621Z,607
2018-02-01T10:31:19.350Z,770
2018-02-01T10:32:20.082Z,1068
2018-02-01T10:33:20.819Z,1096
2018-02-01T10:34:21.557Z,1108
2018-02-01T10:35:22.281Z,973
2018-02-01T10:36:23.016Z,1023
2018-02-01T10:37:23.816Z,675
2018-02-01T10:38:24.540Z,528
2018-02-01T10:39:25.277Z,956
2018-02-01T10:40:26.003Z,618
2018-02-01T10:41:26.804Z,945
2018-02-01T10:42:27.525Z,573
2018-02-01T10:43:28.331Z,669
2018-02-01T10:44:29.100Z,540
2018-02-01T10:45:29.845Z,540
2018-02-01T10:46:30.644Z,1035
2018-02-01T10:47:31.432Z,1018
2018-02-01T10:48:32.172Z,590
2018-02-01T10:49:33.000Z,675
2018-02-01T10:50:33.738Z,725
2018-02-01T10:51:34.469Z,635
2018-02-01T10:52:35.201Z,635
2018-02-01T10:53:36.001Z,686
2018-02-01T10:54:36.720Z,573
2018-02-01T10:55:37.452Z,534
2018-02-01T10:56:38.190Z,393
2018-02-01T10:57:39.024Z,365
2018-02-01T10:58:39.744Z,421
2018-02-01T10:59:40.489Z,450
2018-02-01T11:00:41.234Z,444
2018-02-01T11:01:42.009Z,461
2018-02-01T11:02:42.773Z,489
2018-02-01T11:03:43.833Z,506
2018-02-01T11:04:44.549Z,523
2018-02-01T11:05:45.270Z,556
2018-02-01T11:06:46.016Z,669
2018-02-01T11:07:46.838Z,646
2018-02-01T11:08:47.590Z,568
2018-02-01T11:09:48.632Z,601
2018-02-01T11:10:49.414Z,646
2018-02-01T11:11:50.212Z,1102
2018-02-01T11:12:50.997Z,776
2018-02-01T11:13:51.715Z,1029
2018-02-01T11:14:52.489Z,630
2018-02-01T11:15:53.272Z,540
2018-02-01T11:16:54.023Z,506
2018-02-01T11:17:54.795Z,686
2018-02-01T11:18:55.534Z,911
2018-02-01T11:19:56.553Z,607
2018-02-01T11:20:57.302Z,905
2018-02-01T11:21:58.064Z,562
2018-02-01T11:22:58.801Z,466
2018-02-01T11:23:59.555Z,545
2018-02-01T11:25:00.640Z,495
2018-02-01T11:26:01.377Z,388
2018-02-01T11:27:02.114Z,286
2018-02-01T11:28:02.846Z,421
2018-02-01T11:29:03.570Z,540
2018-02-01T11:30:04.302Z,472
2018-02-01T11:31:05.112Z,849
2018-02-01T11:32:05.923Z,523
2018-02-01T11:33:06.666Z,607
2018-02-01T11:34:07.424Z,900
2018-02-01T11:35:08.192Z,1057
2018-02-01T11:36:09.030Z,776
2018-02-01T11:37:09.754Z,523
2018-02-01T11:38:10.484Z,450
2018-02-01T11:39:11.339Z,354
2018-02-01T11:40:12.030Z,360
2018-02-01T11:41:12.810Z,416
2018-02-01T11:42:13.565Z,534
2018-02-01T11:43:14.263Z,585
2018-02-01T11:44:14.984Z,376
2018-02-01T11:45:15.710Z,348
2018-02-01T11:46:16.458Z,320
2018-02-01T11:47:17.218Z,354
2018-02-01T11:48:17.948Z,405
2018-02-01T11:49:18.741Z,517
2018-02-01T11:50:19.461Z,776
2018-02-01T11:51:20.213Z,781
2018-02-01T11:52:20.952Z,635
2018-02-01T11:53:21.755Z,956
2018-02-01T11:54:22.487Z,860
2018-02-01T11:55:23.247Z,489
2018-02-01T11:56:23.974Z,635
2018-02-01T11:57:24.703Z,545
2018-02-01T11:58:25.437Z,534
2018-02-01T11:59:26.153Z,461
2018-02-01T12:00:26.884Z,455
2018-02-01T12:01:27.624Z,618
2018-02-01T12:02:28.401Z,416
2018-02-01T12:03:29.420Z,399
2018-02-01T12:04:30.144Z,528
2018-02-01T12:05:30.860Z,916
2018-02-01T12:06:31.588Z,714
2018-02-01T12:07:32.364Z,658
2018-02-01T12:08:33.090Z,742
2018-02-01T12:09:33.824Z,686
2018-02-01T12:10:34.620Z,736
2018-02-01T12:11:35.354Z,663
2018-02-01T12:12:36.080Z,669
2018-02-01T12:13:36.863Z,753
2018-02-01T12:14:37.653Z,601
2018-02-01T12:15:38.376Z,438
2018-02-01T12:16:39.120Z,416
2018-02-01T12:17:39.841Z,444
2018-02-01T12:18:40.586Z,433
2018-02-01T12:19:41.325Z,303
2018-02-01T12:20:42.090Z,213
2018-02-01T12:21:42.863Z,213
2018-02-01T12:22:43.610Z,281
2018-02-01T12:23:44.392Z,309
2018-02-01T12:24:45.131Z,286
2018-02-01T12:25:45.855Z,320
2018-02-01T12:26:46.638Z,298
2018-02-01T12:27:47.369Z,208
2018-02-01T12:28:48.123Z,180
2018-02-01T12:29:48.863Z,140
2018-02-01T12:30:49.601Z,129
2018-02-01T12:31:50.334Z,174
2018-02-01T12:32:51.069Z,258
2018-02-01T12:33:51.793Z,292
2018-02-01T12:34:52.525Z,371
2018-02-01T12:35:53.328Z,410
2018-02-01T12:36:54.114Z,343
2018-02-01T12:37:54.852Z,286
2018-02-01T12:38:55.622Z,185
2018-02-01T12:39:56.345Z,168
2018-02-01T12:40:57.144Z,219
2018-02-01T12:41:57.869Z,202
2018-02-01T12:42:58.591Z,174
2018-02-01T12:43:59.313Z,151
2018-02-01T12:45:00.101Z,135
2018-02-01T12:46:00.828Z,129
2018-02-01T12:47:01.591Z,157
2018-02-01T12:48:02.308Z,208
2018-02-01T12:49:03.049Z,213
2018-02-01T12:50:03.843Z,174
2018-02-01T12:51:04.570Z,163
2018-02-01T12:52:05.295Z,180
2018-02-01T12:53:06.023Z,180
2018-02-01T12:54:06.759Z,140
2018-02-01T12:55:07.531Z,135
2018-02-01T12:56:08.253Z,135
2018-02-01T12:57:09.031Z,112
2018-02-01T12:58:09.769Z,129
2018-02-01T12:59:10.570Z,146
2018-02-01T13:00:11.307Z,101
2018-02-01T13:01:12.016Z,106
2018-02-01T13:02:12.791Z,129
2018-02-01T13:03:13.512Z,151
2018-02-01T13:04:14.258Z,208
2018-02-01T13:05:15.043Z,196
2018-02-01T13:06:15.749Z,180
2018-02-01T13:07:16.461Z,157
2018-02-01T13:08:17.243Z,146
2018-02-01T13:09:17.961Z,95
2018-02-01T13:10:18.701Z,78
2018-02-01T13:11:19.513Z,78
2018-02-01T13:12:20.233Z,67
2018-02-01T13:13:21.093Z,61
2018-02-01T13:14:21.901Z,73
2018-02-01T13:15:22.643Z,90
2018-02-01T13:16:23.360Z,101
2018-02-01T13:17:24.094Z,106
2018-02-01T13:18:24.819Z,106
2018-02-01T13:19:25.844Z,129
2018-02-01T13:20:26.587Z,123
2018-02-01T13:21:27.325Z,90
2018-02-01T13:22:28.113Z,90
2018-02-01T13:23:28.862Z,118
2018-02-01T13:24:29.616Z,123
2018-02-01T13:25:30.332Z,112
2018-02-01T13:26:31.153Z,129
2018-02-01T13:27:31.884Z,112
2018-02-01T13:28:32.590Z,90
2018-02-01T13:29:33.318Z,78
2018-02-01T13:30:34.094Z,101
2018-02-01T13:31:34.815Z,95
2018-02-01T13:32:35.538Z,95
2018-02-01T13:33:36.269Z,90
2018-02-01T13:34:36.994Z,84
2018-02-01T13:35:37.780Z,112
2018-02-01T13:36:38.803Z,191
2018-02-01T13:37:39.523Z,298
2018-02-01T13:38:40.263Z,264
2018-02-01T13:39:41.050Z,196
2018-02-01T13:40:41.784Z,106
2018-02-01T13:41:42.560Z,67
2018-02-01T13:42:43.299Z,202
2018-02-01T13:43:44.063Z,410
2018-02-01T13:44:44.833Z,360
2018-02-01T13:45:45.623Z,275
2018-02-01T13:46:46.395Z,247
2018-02-01T13:47:47.128Z,270
2018-02-01T13:48:47.924Z,241
2018-02-01T13:49:48.652Z,264
2018-02-01T13:50:49.391Z,382
2018-02-01T13:51:50.111Z,433
2018-02-01T13:52:50.881Z,360
2018-02-01T13:53:51.620Z,303
2018-02-01T13:54:52.343Z,315
2018-02-01T13:55:53.143Z,264
2018-02-01T13:56:53.949Z,247
2018-02-01T13:57:54.685Z,219
2018-02-01T13:58:55.493Z,208
2018-02-01T13:59:56.234Z,202
2018-02-01T14:00:56.949Z,213
2018-02-01T14:01:57.670Z,202
2018-02-01T14:02:58.390Z,174
2018-02-01T14:03:59.102Z,180
2018-02-01T14:04:59.825Z,163
2018-02-01T14:06:00.552Z,163
2018-02-01T14:07:01.282Z,146
2018-02-01T14:08:02.085Z,129
2018-02-01T14:09:02.887Z,140
2018-02-01T14:10:03.653Z,146
2018-02-01T14:11:04.374Z,140
2018-02-01T14:12:05.105Z,146
2018-02-01T14:13:05.819Z,129
2018-02-01T14:14:06.543Z,112
2018-02-01T14:15:07.383Z,106
2018-02-01T14:16:08.116Z,112
2018-02-01T14:17:08.830Z,101
2018-02-01T14:18:09.551Z,106
2018-02-01T14:19:10.282Z,135
2018-02-01T14:20:11.056Z,151
2018-02-01T14:21:11.865Z,146
2018-02-01T14:22:12.633Z,123
2018-02-01T14:23:13.360Z,123
2018-02-01T14:24:14.084Z,135
2018-02-01T14:25:14.826Z,135
2018-02-01T14:26:15.602Z,123
2018-02-01T14:27:16.321Z,95
2018-02-01T14:28:17.047Z,95